Latest Coastal Weather Observations for Neptune Island

IDS60701

Issued at 1:11 pm CST Tuesday 28 June 2022 (issued every 10 minutes, with the page automatically refreshed every 10 minutes)

About coastal observations | Map of coastal stations | Coastal observations for SA | Marine services | Other Formats
Station Details ID: 018115 Name: NEPTUNE ISLAND Lat: -35.34 Lon: 136.12 Height: 32.0 m
Data from the previous 72 hours. | See also: Recent months at Neptune Island
Date/Time
CST
Wind Sea
Height
m
Swell Vis
km
Cloud Weather Temp
°C
Press
MSL
hPa
Rain since
9am
mm
Dir  Spd
kts
Gust
kts
Height
m
Period
s
Dir
28/01:00pm NW 19 22 - - - - - - - 16.1 1024.1 0.0
28/12:30pm NW 19 24 - - - - - - - 15.7 1024.6 0.0
28/12:00pm NNW 19 22 - - - - - - - 15.9 1025.2 0.0
28/11:30am NNW 20 24 - - - - - - - 15.3 1025.6 0.0
28/11:00am NNW 19 23 - - - - - - - 15.0 1026.1 0.0
28/10:30am NNW 21 25 - - - - - - - 14.4 1026.4 0.0
28/10:00am NNW 20 24 - - - - - - - 14.3 1026.5 0.0
28/09:30am N 18 22 - - - - - - - 14.1 1026.5 0.0
28/09:00am N 18 21 - - - - - - - 13.6 1026.5 0.0
28/08:30am N 16 19 - - - - - - - 13.3 1026.7 0.0
28/08:00am NNW 14 17 - - - - - - - 12.9 1026.8 0.0
28/07:30am N 17 20 - - - - - - - 12.8 1027.0 0.0
28/07:00am NNW 19 22 - - - - - - - 12.8 1026.8 0.0
28/06:30am NNW 19 23 - - - - - - - 13.0 1026.7 0.0
28/06:00am NNW 19 23 - - - - - - - 13.0 1026.4 0.0
28/05:30am N 19 22 - - - - - - - 12.9 1026.3 0.0
28/05:00am N 18 21 - - - - - - - 12.9 1026.3 0.0
28/04:30am N 17 19 - - - - - - - 13.0 1026.5 0.0
28/04:00am N 17 20 - - - - - - - 12.9 1026.6 0.0
28/03:30am N 19 22 - - - - - - - 12.8 1026.8 0.0
28/03:00am N 19 22 - - - - - - - 12.9 1027.0 0.0
28/02:30am N 19 22 - - - - - - - 13.0 1027.3 0.0
28/02:00am N 17 19 - - - - - - - 13.0 1027.9 0.0
28/01:30am N 18 21 - - - - - - - 12.8 1028.1 0.0
28/01:00am N 16 19 - - - - - - - 12.8 1028.6 0.0
28/12:30am N 17 21 - - - - - - - 12.7 1028.8 0.0
28/12:00am N 17 21 - - - - - - - 12.6 1029.1 0.0
 
Date/Time
CST
Wind Sea
Height
m
Swell Vis
km
Cloud Weather Temp
°C
Press
MSL
hPa
Rain since
9am
mm
Dir  Spd
kts
Gust
kts
Height
m
Period
s
Dir
27/11:30pm N 17 19 - - - - - - - 12.6 1029.4 0.0
27/11:00pm N 17 19 - - - - - - - 12.6 1029.6 0.0
27/10:30pm N 17 20 - - - - - - - 12.4 1029.7 0.0
27/10:00pm N 16 19 - - - - - - - 12.4 1030.2 0.0
27/09:30pm N 16 20 - - - - - - - 12.2 1030.6 0.0
27/09:00pm NNE 15 18 - - - - - - - 12.1 1031.0 0.0
27/08:30pm NNE 15 18 - - - - - - - 12.1 1031.3 0.0
27/08:00pm NNE 15 19 - - - - - - - 12.2 1031.4 0.0
27/07:30pm NNE 13 16 - - - - - - - 12.3 1031.5 0.0
27/07:00pm N 12 16 - - - - - - - 12.6 1031.4 0.0
27/06:30pm N 9 12 - - - - - - - 12.6 1031.4 0.0
27/06:00pm N 10 13 - - - - - - - 12.6 1031.2 0.0
27/05:30pm N 10 14 - - - - - - - 12.9 1031.3 0.0
27/05:00pm N 10 12 - - - - - - - 12.9 1031.4 0.0
27/04:30pm NNW 9 13 - - - - - - - 13.3 1031.4 0.0
27/04:00pm NW 9 12 - - - - - - - 13.6 1031.5 0.0
27/03:30pm NNW 9 14 - - - - - - - 13.9 1031.7 0.0
27/03:00pm NW 7 9 - - - - - - - 14.1 1032.0 0.0
27/02:30pm NW 9 12 - - - - - - - 14.1 1032.2 0.0
27/02:00pm NNW 9 11 - - - - - - - 14.2 1032.4 0.0
27/01:30pm NNW 8 11 - - - - - - - 14.4 1032.9 0.0
27/01:00pm NNW 7 9 - - - - - - - 14.0 1033.3 0.0
27/12:30pm NNW 7 9 - - - - - - - 14.2 1033.7 0.0
27/12:00pm N 9 11 - - - - - - - 14.2 1034.0 0.0
27/11:30am N 8 13 - - - - - - - 14.2 1034.5 0.0
27/11:00am N 8 11 - - - - - - - 14.3 1034.6 0.0
27/10:30am N 9 14 - - - - - - - 14.9 1034.8 0.0
27/10:00am N 9 11 - - - - - - - 13.6 1035.0 0.0
27/09:30am NNE 8 13 - - - - - - - 13.6 1034.7 0.0
27/09:00am NNE 7 10 - - - - - - - 13.4 1034.5 0.4
27/08:30am N 7 9 - - - - - - - 12.6 1034.3 0.4
27/08:00am NNE 8 10 - - - - - - - 12.5 1034.1 0.4
27/07:30am N 6 8 - - - - - - - 12.1 1033.7 0.4
27/07:00am NNE 9 12 - - - - - - - 12.1 1033.2 0.4
27/06:30am NNE 9 11 - - - - - - - 12.1 1032.9 0.4
27/06:00am NNE 8 11 - - - - - - - 12.1 1032.7 0.4
27/05:30am NE 7 9 - - - - - - - 11.9 1032.5 0.4
27/05:00am NNE 6 8 - - - - - - - 11.4 1032.5 0.4
27/04:30am ENE 5 9 - - - - - - - 11.7 1032.7 0.4
27/04:00am E 7 9 - - - - - - - 11.2 1032.7 0.4
27/03:30am ENE 5 8 - - - - - - - 12.0 1032.9 0.4
27/03:00am E 5 7 - - - - - - - 11.9 1033.0 0.4
27/02:30am ENE 7 11 - - - - - - - 12.0 1033.0 0.4
27/02:00am E 8 11 - - - - - - - 12.0 1033.0 0.4
27/01:30am ESE 6 8 - - - - - - - 12.1 1033.1 0.4
27/01:00am ESE 2 6 - - - - - - - 12.2 1033.2 0.4
27/12:30am E 7 11 - - - - - - - 11.6 1033.2 0.4
27/12:00am SSE 7 10 - - - - - - - 12.5 1033.4 0.4
 
Date/Time
CST
Wind Sea
Height
m
Swell Vis
km
Cloud Weather Temp
°C
Press
MSL
hPa
Rain since
9am
mm
Dir  Spd
kts
Gust
kts
Height
m
Period
s
Dir
26/11:30pm SSE 8 12 - - - - - - - 12.5 1033.2 0.4
26/11:00pm ESE 7 9 - - - - - - - 12.6 1033.0 0.4
26/10:30pm ESE 7 10 - - - - - - - 12.8 1032.7 0.4
26/10:00pm ESE 9 13 - - - - - - - 12.8 1032.6 0.4
26/09:30pm SE 10 15 - - - - - - - 12.9 1032.4 0.4
26/09:00pm SSE 8 12 - - - - - - - 13.0 1032.0 0.4
26/08:30pm SSE 7 12 - - - - - - - 13.3 1031.7 0.4
26/08:00pm S 9 13 - - - - - - - 13.3 1031.4 0.4
26/07:30pm SSW 10 11 - - - - - - - 13.4 1031.3 0.4
26/07:00pm SSW 11 15 - - - - - - - 13.1 1031.1 0.4
26/06:30pm SSW 13 18 - - - - - - - 13.2 1030.8 0.4
26/06:00pm SSW 14 17 - - - - - - - 13.4 1030.5 0.4
26/05:30pm SSW 17 21 - - - - - - - 13.5 1030.0 0.4
26/05:00pm SSW 17 21 - - - - - - - 13.7 1029.7 0.4
26/04:30pm SSW 16 19 - - - - - - - 14.0 1029.5 0.4
26/04:00pm S 17 20 - - - - - - - 14.0 1029.2 0.4
26/03:30pm SSW 16 19 - - - - - - - 14.4 1029.1 0.4
26/03:00pm SSW 16 20 - - - - - - - 14.3 1028.8 0.4
26/02:30pm S 17 23 - - - - - - - 14.2 1028.6 0.4
26/02:00pm SSW 15 19 - - - - - - - 14.2 1028.6 0.4
26/01:30pm SSW 13 16 - - - - - - - 15.3 1028.4 0.4
26/01:00pm SSW 15 18 - - - - - - - 14.3 1028.2 0.4
26/12:30pm SSW 18 23 - - - - - - - 13.4 1028.3 0.4
26/12:17pm SSW 16 25 - - - - - - - 14.3 1028.2 0.4
26/12:00pm SSW 12 15 - - - - - - - 14.6 1028.4 0.4
26/11:30am S 14 16 - - - - - - - 14.4 1028.5 0.4
26/11:00am S 16 19 - - - - - - - 14.0 1028.5 0.4
26/10:30am S 16 19 - - - - - - - 13.8 1028.2 0.4
26/10:00am SSW 14 17 - - - - - - - 14.0 1027.6 0.4
26/09:30am SW 15 19 - - - - - - - 13.8 1027.8 0.4
26/09:00am SW 16 19 - - - - - - Recent precip. 12.9 1027.6 0.6
26/08:30am SW 20 26 - - - - - - - 13.2 1026.5 0.4
26/08:00am WSW 22 26 - - - - - - - 14.3 1026.3 0.0
26/07:30am WSW 21 25 - - - - - - - 14.1 1025.9 0.0
26/07:00am SW 20 27 - - - - - - - 14.2 1025.7 0.0
26/06:30am WSW 20 24 - - - - - - - 14.4 1025.4 0.0
26/06:00am WSW 20 23 - - - - - - - 14.4 1025.1 0.0
26/05:30am WSW 21 25 - - - - - - - 14.5 1024.7 0.0
26/05:00am WSW 20 24 - - - - - - - 14.5 1024.3 0.0
26/04:30am WSW 20 23 - - - - - - - 14.5 1024.1 0.0
26/04:00am WSW 19 23 - - - - - - - 14.4 1024.1 0.0
26/03:30am WSW 19 21 - - - - - - - 14.4 1024.1 0.0
26/03:00am WSW 19 25 - - - - - - - 14.1 1024.0 0.0
26/02:30am SW 20 24 - - - - - - - 14.3 1023.9 0.0
26/02:00am WSW 21 24 - - - - - - - 14.8 1023.9 0.0
26/01:30am WSW 20 23 - - - - - - - 14.7 1023.7 0.0
26/01:00am WSW 19 22 - - - - - - - 14.8 1023.6 0.0
26/12:30am WSW 20 23 - - - - - - - 14.7 1023.7 0.0
26/12:00am W 17 21 - - - - - - - 14.6 1023.8 0.0
 
Date/Time
CST
Wind Sea
Height
m
Swell Vis
km
Cloud Weather Temp
°C
Press
MSL
hPa
Rain since
9am
mm
Dir  Spd
kts
Gust
kts
Height
m
Period
s
Dir
25/11:30pm W 16 19 - - - - - - - 14.4 1023.9 0.0
25/11:00pm W 15 18 - - - - - - - 14.5 1023.7 0.0
25/10:30pm WSW 22 27 - - - - - - - 14.0 1023.7 0.0
25/10:00pm WSW 22 25 - - - - - - - 14.5 1023.4 0.0
25/09:30pm WSW 19 22 - - - - - - - 15.4 1023.2 0.0
25/09:00pm SW 20 23 - - - - - - - 15.1 1022.9 0.0
25/08:30pm WSW 24 29 - - - - - - - 15.0 1022.7 0.0
25/08:00pm WSW 23 27 - - - - - - - 15.2 1022.5 0.0
25/07:30pm W 23 28 - - - - - - - 14.9 1022.2 0.0
25/07:00pm W 24 28 - - - - - - - 15.0 1022.0 0.0
25/06:30pm WSW 23 27 - - - - - - - 14.8 1021.7 0.0
25/06:03pm W 27 37 - - - - - - - 14.1 1021.4 0.0
25/06:00pm W 28 37 - - - - - - - 14.2 1021.3 0.0
25/05:51pm W 21 32 - - - - - - - 15.5 1021.1 0.0
25/05:30pm W 22 27 - - - - - - - 15.2 1020.9 0.0
25/05:00pm WSW 21 25 - - - - - - - 15.7 1020.7 0.0
25/04:30pm W 22 26 - - - - - - - 15.4 1020.4 0.0
25/04:00pm W 19 25 - - - - - - - 16.1 1020.4 0.0
25/03:30pm W 16 22 - - - - - - - 15.8 1020.4 0.0
25/03:00pm W 19 22 - - - - - - - 16.3 1020.5 0.0
25/02:30pm W 19 23 - - - - - - - 15.5 1020.5 0.0
25/02:00pm W 24 29 - - - - - - - 15.5 1020.4 0.0
25/01:30pm W 21 25 - - - - - - - 16.3 1020.7 0.0

Other formats

Comma delimited format used in spreadsheet applications
http://www.bom.gov.au/fwo/IDS60701/IDS60701.94804.axf

JavaScript Object Notation format (JSON) in row-major order
http://www.bom.gov.au/fwo/IDS60701/IDS60701.94804.json

Data quality

Most of these data are generated automatically and are frequently updated. Quality checks on data are not normally performed. It is possible for incorrect values to appear. Refer to information at About Latest Weather Observations and please check the disclaimer before using these data.